sensor_id;sensor_type;location;lat;lon;timestamp;temperature;humidity
52555;DHT22;38455;52.710;6.502;2024-03-02T00:02:13;8.00;99.90
52555;DHT22;38455;52.710;6.502;2024-03-02T00:04:39;8.00;99.90
52555;DHT22;38455;52.710;6.502;2024-03-02T00:07:06;8.00;99.90
52555;DHT22;38455;52.710;6.502;2024-03-02T00:09:33;8.00;99.90
52555;DHT22;38455;52.710;6.502;2024-03-02T00:12:02;8.00;99.90
52555;DHT22;38455;52.710;6.502;2024-03-02T00:14:31;8.00;99.90
52555;DHT22;38455;52.710;6.502;2024-03-02T00:16:56;8.00;99.90
52555;DHT22;38455;52.710;6.502;2024-03-02T00:19:22;8.00;99.90
52555;DHT22;38455;52.710;6.502;2024-03-02T00:21:48;8.10;99.90
52555;DHT22;38455;52.710;6.502;2024-03-02T00:24:34;8.00;99.90
52555;DHT22;38455;52.710;6.502;2024-03-02T00:27:01;8.00;99.90
52555;DHT22;38455;52.710;6.502;2024-03-02T00:29:29;8.00;99.90
52555;DHT22;38455;52.710;6.502;2024-03-02T00:31:55;8.00;99.90
52555;DHT22;38455;52.710;6.502;2024-03-02T00:34:21;8.10;99.90
52555;DHT22;38455;52.710;6.502;2024-03-02T00:36:47;8.10;99.90
52555;DHT22;38455;52.710;6.502;2024-03-02T00:39:15;8.10;99.90
52555;DHT22;38455;52.710;6.502;2024-03-02T00:41:42;8.10;99.90
52555;DHT22;38455;52.710;6.502;2024-03-02T00:44:11;8.10;99.90
52555;DHT22;38455;52.710;6.502;2024-03-02T00:46:39;8.20;99.90
52555;DHT22;38455;52.710;6.502;2024-03-02T00:51:34;8.10;99.90
52555;DHT22;38455;52.710;6.502;2024-03-02T00:54:03;8.10;99.90
52555;DHT22;38455;52.710;6.502;2024-03-02T00:56:30;8.10;99.90
52555;DHT22;38455;52.710;6.502;2024-03-02T00:58:56;8.10;99.90
52555;DHT22;38455;52.710;6.502;2024-03-02T01:01:22;8.10;99.90
52555;DHT22;38455;52.710;6.502;2024-03-02T01:03:48;8.10;99.90
52555;DHT22;38455;52.710;6.502;2024-03-02T01:06:17;8.00;99.90
52555;DHT22;38455;52.710;6.502;2024-03-02T01:08:44;8.00;99.90
52555;DHT22;38455;52.710;6.502;2024-03-02T01:11:10;8.00;99.90
52555;DHT22;38455;52.710;6.502;2024-03-02T01:13:35;8.10;99.90
52555;DHT22;38455;52.710;6.502;2024-03-02T01:16:01;8.00;99.90
52555;DHT22;38455;52.710;6.502;2024-03-02T01:18:27;8.00;99.90
52555;DHT22;38455;52.710;6.502;2024-03-02T01:20:53;8.00;99.90
52555;DHT22;38455;52.710;6.502;2024-03-02T01:23:24;8.00;99.90
52555;DHT22;38455;52.710;6.502;2024-03-02T01:25:51;8.00;99.90
52555;DHT22;38455;52.710;6.502;2024-03-02T01:28:17;8.00;99.90
52555;DHT22;38455;52.710;6.502;2024-03-02T01:30:44;8.00;99.90
52555;DHT22;38455;52.710;6.502;2024-03-02T01:33:10;8.00;99.90
52555;DHT22;38455;52.710;6.502;2024-03-02T01:35:36;8.00;99.90
52555;DHT22;38455;52.710;6.502;2024-03-02T01:38:03;8.10;99.90
52555;DHT22;38455;52.710;6.502;2024-03-02T01:40:29;8.00;99.90
52555;DHT22;38455;52.710;6.502;2024-03-02T01:42:55;8.10;99.90
52555;DHT22;38455;52.710;6.502;2024-03-02T01:45:23;8.10;99.90
52555;DHT22;38455;52.710;6.502;2024-03-02T01:47:49;8.10;99.90
52555;DHT22;38455;52.710;6.502;2024-03-02T01:50:15;8.10;99.90
52555;DHT22;38455;52.710;6.502;2024-03-02T01:52:41;8.10;99.90
52555;DHT22;38455;52.710;6.502;2024-03-02T01:55:07;8.10;99.90
52555;DHT22;38455;52.710;6.502;2024-03-02T01:57:34;8.20;99.90
52555;DHT22;38455;52.710;6.502;2024-03-02T02:00:00;8.20;99.90
52555;DHT22;38455;52.710;6.502;2024-03-02T02:02:26;8.20;99.90
52555;DHT22;38455;52.710;6.502;2024-03-02T02:04:51;8.20;99.90
52555;DHT22;38455;52.710;6.502;2024-03-02T02:07:17;8.20;99.90
52555;DHT22;38455;52.710;6.502;2024-03-02T02:09:43;8.20;99.90
52555;DHT22;38455;52.710;6.502;2024-03-02T02:12:11;8.20;99.90
52555;DHT22;38455;52.710;6.502;2024-03-02T02:14:37;8.20;99.90
52555;DHT22;38455;52.710;6.502;2024-03-02T02:17:05;8.20;99.90
52555;DHT22;38455;52.710;6.502;2024-03-02T02:19:30;8.20;99.90
52555;DHT22;38455;52.710;6.502;2024-03-02T02:21:56;8.20;99.90
52555;DHT22;38455;52.710;6.502;2024-03-02T02:24:22;8.20;99.90
52555;DHT22;38455;52.710;6.502;2024-03-02T02:26:47;8.20;99.90
52555;DHT22;38455;52.710;6.502;2024-03-02T02:29:13;8.20;99.90
52555;DHT22;38455;52.710;6.502;2024-03-02T02:31:39;8.10;99.90
52555;DHT22;38455;52.710;6.502;2024-03-02T02:34:06;8.10;99.90
52555;DHT22;38455;52.710;6.502;2024-03-02T02:36:35;8.10;99.90
52555;DHT22;38455;52.710;6.502;2024-03-02T02:39:03;8.20;99.90
52555;DHT22;38455;52.710;6.502;2024-03-02T02:41:29;8.20;99.90
52555;DHT22;38455;52.710;6.502;2024-03-02T02:43:55;8.20;99.90
52555;DHT22;38455;52.710;6.502;2024-03-02T02:46:21;8.20;99.90
52555;DHT22;38455;52.710;6.502;2024-03-02T02:48:47;8.20;99.90
52555;DHT22;38455;52.710;6.502;2024-03-02T02:51:12;8.20;99.90
52555;DHT22;38455;52.710;6.502;2024-03-02T02:53:38;8.20;99.90
52555;DHT22;38455;52.710;6.502;2024-03-02T02:56:06;8.10;99.90
52555;DHT22;38455;52.710;6.502;2024-03-02T02:58:32;8.20;99.90
52555;DHT22;38455;52.710;6.502;2024-03-02T03:00:57;8.20;99.90
52555;DHT22;38455;52.710;6.502;2024-03-02T03:03:23;8.20;99.90
52555;DHT22;38455;52.710;6.502;2024-03-02T03:05:49;8.20;99.90
52555;DHT22;38455;52.710;6.502;2024-03-02T03:08:14;8.20;99.90
52555;DHT22;38455;52.710;6.502;2024-03-02T03:10:41;8.20;99.90
52555;DHT22;38455;52.710;6.502;2024-03-02T03:13:07;8.20;99.90
52555;DHT22;38455;52.710;6.502;2024-03-02T03:15:36;8.20;99.90
52555;DHT22;38455;52.710;6.502;2024-03-02T03:18:03;8.20;99.90
52555;DHT22;38455;52.710;6.502;2024-03-02T03:20:29;8.20;99.90
52555;DHT22;38455;52.710;6.502;2024-03-02T03:22:56;8.20;99.90
52555;DHT22;38455;52.710;6.502;2024-03-02T03:25:21;8.20;99.90
52555;DHT22;38455;52.710;6.502;2024-03-02T03:27:47;8.20;99.90
52555;DHT22;38455;52.710;6.502;2024-03-02T03:30:13;8.20;99.90
52555;DHT22;38455;52.710;6.502;2024-03-02T03:32:38;8.10;99.90
52555;DHT22;38455;52.710;6.502;2024-03-02T03:35:05;8.10;99.90
52555;DHT22;38455;52.710;6.502;2024-03-02T03:37:31;8.10;99.90
52555;DHT22;38455;52.710;6.502;2024-03-02T03:40:02;8.00;99.90
52555;DHT22;38455;52.710;6.502;2024-03-02T03:42:28;8.00;99.90
52555;DHT22;38455;52.710;6.502;2024-03-02T03:44:54;8.00;99.90
52555;DHT22;38455;52.710;6.502;2024-03-02T03:47:19;8.00;99.90
52555;DHT22;38455;52.710;6.502;2024-03-02T03:49:46;8.00;99.90
52555;DHT22;38455;52.710;6.502;2024-03-02T03:52:11;8.00;99.90
52555;DHT22;38455;52.710;6.502;2024-03-02T03:54:37;8.00;99.90
52555;DHT22;38455;52.710;6.502;2024-03-02T03:57:04;8.00;99.90
52555;DHT22;38455;52.710;6.502;2024-03-02T03:59:30;8.00;99.90
52555;DHT22;38455;52.710;6.502;2024-03-02T04:01:56;8.00;99.90
52555;DHT22;38455;52.710;6.502;2024-03-02T04:04:21;8.00;99.90
52555;DHT22;38455;52.710;6.502;2024-03-02T04:06:47;8.00;99.90
52555;DHT22;38455;52.710;6.502;2024-03-02T04:09:13;8.00;99.90
52555;DHT22;38455;52.710;6.502;2024-03-02T04:11:39;8.00;99.90
52555;DHT22;38455;52.710;6.502;2024-03-02T04:14:04;8.00;99.90
52555;DHT22;38455;52.710;6.502;2024-03-02T04:16:31;8.00;99.90
52555;DHT22;38455;52.710;6.502;2024-03-02T04:18:57;8.00;99.90
52555;DHT22;38455;52.710;6.502;2024-03-02T04:21:23;7.90;99.90
52555;DHT22;38455;52.710;6.502;2024-03-02T04:23:48;7.90;99.90
52555;DHT22;38455;52.710;6.502;2024-03-02T04:26:14;7.90;99.90
52555;DHT22;38455;52.710;6.502;2024-03-02T04:28:40;7.90;99.90
52555;DHT22;38455;52.710;6.502;2024-03-02T04:31:06;7.90;99.90
52555;DHT22;38455;52.710;6.502;2024-03-02T04:33:32;7.90;99.90
52555;DHT22;38455;52.710;6.502;2024-03-02T04:35:57;7.90;99.90
52555;DHT22;38455;52.710;6.502;2024-03-02T04:38:23;7.90;99.90
52555;DHT22;38455;52.710;6.502;2024-03-02T04:40:49;7.90;99.90
52555;DHT22;38455;52.710;6.502;2024-03-02T04:43:14;7.90;99.90
52555;DHT22;38455;52.710;6.502;2024-03-02T04:45:42;7.90;99.90
52555;DHT22;38455;52.710;6.502;2024-03-02T04:48:08;7.90;99.90
52555;DHT22;38455;52.710;6.502;2024-03-02T04:50:34;7.80;99.90
52555;DHT22;38455;52.710;6.502;2024-03-02T04:52:59;7.80;99.90
52555;DHT22;38455;52.710;6.502;2024-03-02T04:55:25;7.80;99.90
52555;DHT22;38455;52.710;6.502;2024-03-02T04:57:54;7.80;99.90
52555;DHT22;38455;52.710;6.502;2024-03-02T05:00:22;7.70;99.90
52555;DHT22;38455;52.710;6.502;2024-03-02T05:02:48;7.70;99.90
52555;DHT22;38455;52.710;6.502;2024-03-02T05:05:14;7.70;99.90
52555;DHT22;38455;52.710;6.502;2024-03-02T05:07:42;7.60;99.90
52555;DHT22;38455;52.710;6.502;2024-03-02T05:10:09;7.60;99.90
52555;DHT22;38455;52.710;6.502;2024-03-02T05:12:35;7.50;99.90
52555;DHT22;38455;52.710;6.502;2024-03-02T05:15:12;7.50;99.90
52555;DHT22;38455;52.710;6.502;2024-03-02T05:17:39;7.50;99.90
52555;DHT22;38455;52.710;6.502;2024-03-02T05:20:06;7.50;99.90
52555;DHT22;38455;52.710;6.502;2024-03-02T05:22:35;7.60;99.90
52555;DHT22;38455;52.710;6.502;2024-03-02T05:25:05;7.60;99.90
52555;DHT22;38455;52.710;6.502;2024-03-02T05:27:31;7.60;99.90
52555;DHT22;38455;52.710;6.502;2024-03-02T05:29:58;7.60;99.90
52555;DHT22;38455;52.710;6.502;2024-03-02T05:32:24;7.60;99.90
52555;DHT22;38455;52.710;6.502;2024-03-02T05:34:50;7.60;99.90
52555;DHT22;38455;52.710;6.502;2024-03-02T05:37:18;7.60;99.90
52555;DHT22;38455;52.710;6.502;2024-03-02T05:39:44;7.50;99.90
52555;DHT22;38455;52.710;6.502;2024-03-02T05:42:10;7.50;99.90
52555;DHT22;38455;52.710;6.502;2024-03-02T05:44:36;7.50;99.90
52555;DHT22;38455;52.710;6.502;2024-03-02T05:47:02;7.40;99.90
52555;DHT22;38455;52.710;6.502;2024-03-02T05:49:28;7.40;99.90
52555;DHT22;38455;52.710;6.502;2024-03-02T05:51:54;7.50;99.90
52555;DHT22;38455;52.710;6.502;2024-03-02T05:54:19;7.50;99.90
52555;DHT22;38455;52.710;6.502;2024-03-02T05:56:45;7.50;99.90
52555;DHT22;38455;52.710;6.502;2024-03-02T05:59:11;7.50;99.90
52555;DHT22;38455;52.710;6.502;2024-03-02T06:01:43;7.60;99.90
52555;DHT22;38455;52.710;6.502;2024-03-02T06:04:13;7.50;99.90
52555;DHT22;38455;52.710;6.502;2024-03-02T06:06:39;7.50;99.90
52555;DHT22;38455;52.710;6.502;2024-03-02T06:09:05;7.40;99.90
52555;DHT22;38455;52.710;6.502;2024-03-02T06:11:37;7.30;99.90
52555;DHT22;38455;52.710;6.502;2024-03-02T06:14:04;7.30;99.90
52555;DHT22;38455;52.710;6.502;2024-03-02T06:16:29;7.20;99.90
52555;DHT22;38455;52.710;6.502;2024-03-02T06:18:56;7.20;99.90
52555;DHT22;38455;52.710;6.502;2024-03-02T06:21:24;7.20;99.90
52555;DHT22;38455;52.710;6.502;2024-03-02T06:23:49;7.20;99.90
52555;DHT22;38455;52.710;6.502;2024-03-02T06:26:15;7.10;99.90
52555;DHT22;38455;52.710;6.502;2024-03-02T06:28:41;7.10;99.90
52555;DHT22;38455;52.710;6.502;2024-03-02T06:31:06;7.10;99.90
52555;DHT22;38455;52.710;6.502;2024-03-02T06:33:32;7.10;99.90
52555;DHT22;38455;52.710;6.502;2024-03-02T06:35:58;7.00;99.90
52555;DHT22;38455;52.710;6.502;2024-03-02T06:38:23;7.00;99.90
52555;DHT22;38455;52.710;6.502;2024-03-02T06:40:49;6.90;99.90
52555;DHT22;38455;52.710;6.502;2024-03-02T06:43:15;6.90;99.90
52555;DHT22;38455;52.710;6.502;2024-03-02T06:45:40;6.90;99.90
52555;DHT22;38455;52.710;6.502;2024-03-02T06:48:07;6.90;99.90
52555;DHT22;38455;52.710;6.502;2024-03-02T06:50:32;7.00;99.90
52555;DHT22;38455;52.710;6.502;2024-03-02T06:52:58;6.90;99.90
52555;DHT22;38455;52.710;6.502;2024-03-02T06:55:24;6.90;99.90
52555;DHT22;38455;52.710;6.502;2024-03-02T06:57:50;6.90;99.90
52555;DHT22;38455;52.710;6.502;2024-03-02T07:00:16;6.90;99.90
52555;DHT22;38455;52.710;6.502;2024-03-02T07:02:44;7.00;99.90
52555;DHT22;38455;52.710;6.502;2024-03-02T07:05:10;7.00;99.90
52555;DHT22;38455;52.710;6.502;2024-03-02T07:07:37;7.00;99.90
52555;DHT22;38455;52.710;6.502;2024-03-02T07:10:05;7.10;99.90
52555;DHT22;38455;52.710;6.502;2024-03-02T07:12:33;7.10;99.90
52555;DHT22;38455;52.710;6.502;2024-03-02T07:14:59;7.20;99.90
52555;DHT22;38455;52.710;6.502;2024-03-02T07:17:31;7.30;99.90
52555;DHT22;38455;52.710;6.502;2024-03-02T07:19:57;7.40;99.90
52555;DHT22;38455;52.710;6.502;2024-03-02T07:22:23;7.50;99.90
52555;DHT22;38455;52.710;6.502;2024-03-02T07:24:49;7.60;99.90
52555;DHT22;38455;52.710;6.502;2024-03-02T07:27:15;7.70;99.90
52555;DHT22;38455;52.710;6.502;2024-03-02T07:29:43;7.90;99.90
52555;DHT22;38455;52.710;6.502;2024-03-02T07:32:10;8.20;99.90
52555;DHT22;38455;52.710;6.502;2024-03-02T07:34:36;9.00;99.90
52555;DHT22;38455;52.710;6.502;2024-03-02T07:37:03;9.90;99.90
52555;DHT22;38455;52.710;6.502;2024-03-02T07:39:29;10.70;99.90
52555;DHT22;38455;52.710;6.502;2024-03-02T07:41:55;11.60;99.90
52555;DHT22;38455;52.710;6.502;2024-03-02T07:44:21;12.20;99.90
52555;DHT22;38455;52.710;6.502;2024-03-02T07:46:47;12.70;99.90
52555;DHT22;38455;52.710;6.502;2024-03-02T07:49:15;13.10;99.90
52555;DHT22;38455;52.710;6.502;2024-03-02T07:51:41;12.70;99.90
52555;DHT22;38455;52.710;6.502;2024-03-02T07:54:07;11.80;99.90
52555;DHT22;38455;52.710;6.502;2024-03-02T07:56:37;11.30;99.90
52555;DHT22;38455;52.710;6.502;2024-03-02T07:59:03;11.80;99.90
52555;DHT22;38455;52.710;6.502;2024-03-02T08:01:30;12.90;99.90
52555;DHT22;38455;52.710;6.502;2024-03-02T08:03:57;13.70;99.90
52555;DHT22;38455;52.710;6.502;2024-03-02T08:06:24;14.40;99.90
52555;DHT22;38455;52.710;6.502;2024-03-02T08:08:56;14.80;99.90
52555;DHT22;38455;52.710;6.502;2024-03-02T08:11:22;15.10;99.90
52555;DHT22;38455;52.710;6.502;2024-03-02T08:13:48;15.30;99.90
52555;DHT22;38455;52.710;6.502;2024-03-02T08:16:18;15.50;99.90
52555;DHT22;38455;52.710;6.502;2024-03-02T08:18:46;15.50;99.90
52555;DHT22;38455;52.710;6.502;2024-03-02T08:21:13;15.60;99.90
52555;DHT22;38455;52.710;6.502;2024-03-02T08:23:38;15.50;99.90
52555;DHT22;38455;52.710;6.502;2024-03-02T08:26:06;15.70;99.90
52555;DHT22;38455;52.710;6.502;2024-03-02T08:28:32;15.70;99.90
52555;DHT22;38455;52.710;6.502;2024-03-02T08:30:58;15.80;99.90
52555;DHT22;38455;52.710;6.502;2024-03-02T08:33:24;15.50;99.90
52555;DHT22;38455;52.710;6.502;2024-03-02T08:35:50;14.80;99.90
52555;DHT22;38455;52.710;6.502;2024-03-02T08:38:15;14.70;99.90
52555;DHT22;38455;52.710;6.502;2024-03-02T08:40:41;15.00;99.90
52555;DHT22;38455;52.710;6.502;2024-03-02T08:43:07;15.50;99.90
52555;DHT22;38455;52.710;6.502;2024-03-02T08:45:33;15.70;99.90
52555;DHT22;38455;52.710;6.502;2024-03-02T08:48:00;15.80;99.90
52555;DHT22;38455;52.710;6.502;2024-03-02T08:50:25;16.20;99.90
52555;DHT22;38455;52.710;6.502;2024-03-02T08:52:51;16.50;99.90
52555;DHT22;38455;52.710;6.502;2024-03-02T08:55:17;16.70;99.90
52555;DHT22;38455;52.710;6.502;2024-03-02T08:57:42;16.60;99.90
52555;DHT22;38455;52.710;6.502;2024-03-02T09:00:08;16.50;99.90
52555;DHT22;38455;52.710;6.502;2024-03-02T09:02:34;16.10;99.90
52555;DHT22;38455;52.710;6.502;2024-03-02T09:05:01;15.50;99.90
52555;DHT22;38455;52.710;6.502;2024-03-02T09:07:26;14.70;99.90
52555;DHT22;38455;52.710;6.502;2024-03-02T09:09:52;14.40;99.90
52555;DHT22;38455;52.710;6.502;2024-03-02T09:12:18;13.70;99.90
52555;DHT22;38455;52.710;6.502;2024-03-02T09:14:45;13.10;99.90
52555;DHT22;38455;52.710;6.502;2024-03-02T09:17:11;12.80;99.90
52555;DHT22;38455;52.710;6.502;2024-03-02T09:19:37;13.00;99.90
52555;DHT22;38455;52.710;6.502;2024-03-02T09:22:04;13.30;99.90
52555;DHT22;38455;52.710;6.502;2024-03-02T09:24:31;12.80;99.90
52555;DHT22;38455;52.710;6.502;2024-03-02T09:26:57;12.30;99.90
52555;DHT22;38455;52.710;6.502;2024-03-02T09:29:22;12.40;99.90
52555;DHT22;38455;52.710;6.502;2024-03-02T09:31:48;13.00;99.90
52555;DHT22;38455;52.710;6.502;2024-03-02T09:34:15;13.40;99.90
52555;DHT22;38455;52.710;6.502;2024-03-02T09:36:41;13.80;99.90
52555;DHT22;38455;52.710;6.502;2024-03-02T09:39:10;14.00;99.90
52555;DHT22;38455;52.710;6.502;2024-03-02T09:41:39;14.20;99.90
52555;DHT22;38455;52.710;6.502;2024-03-02T09:44:05;14.00;99.90
52555;DHT22;38455;52.710;6.502;2024-03-02T09:46:34;14.10;99.90
52555;DHT22;38455;52.710;6.502;2024-03-02T09:49:02;14.40;99.90
52555;DHT22;38455;52.710;6.502;2024-03-02T09:51:28;14.50;99.90
52555;DHT22;38455;52.710;6.502;2024-03-02T09:53:55;14.70;99.90
52555;DHT22;38455;52.710;6.502;2024-03-02T09:56:21;14.90;99.90
52555;DHT22;38455;52.710;6.502;2024-03-02T09:58:47;15.00;99.90
52555;DHT22;38455;52.710;6.502;2024-03-02T10:01:13;15.20;99.90
52555;DHT22;38455;52.710;6.502;2024-03-02T10:03:39;15.00;99.90
52555;DHT22;38455;52.710;6.502;2024-03-02T10:06:25;14.80;99.90
52555;DHT22;38455;52.710;6.502;2024-03-02T10:08:51;14.30;99.90
52555;DHT22;38455;52.710;6.502;2024-03-02T10:11:31;14.00;99.90
52555;DHT22;38455;52.710;6.502;2024-03-02T10:14:08;14.50;99.90
52555;DHT22;38455;52.710;6.502;2024-03-02T10:16:39;15.10;99.90
52555;DHT22;38455;52.710;6.502;2024-03-02T10:19:24;16.10;99.90
52555;DHT22;38455;52.710;6.502;2024-03-02T10:21:54;17.20;99.90
52555;DHT22;38455;52.710;6.502;2024-03-02T10:24:21;17.90;99.90
52555;DHT22;38455;52.710;6.502;2024-03-02T10:26:47;18.30;99.90
52555;DHT22;38455;52.710;6.502;2024-03-02T10:29:13;18.80;99.30
52555;DHT22;38455;52.710;6.502;2024-03-02T10:31:40;18.50;98.40
52555;DHT22;38455;52.710;6.502;2024-03-02T10:34:10;18.70;98.60
52555;DHT22;38455;52.710;6.502;2024-03-02T10:36:37;18.50;97.40
52555;DHT22;38455;52.710;6.502;2024-03-02T10:39:07;18.70;97.50
52555;DHT22;38455;52.710;6.502;2024-03-02T10:41:37;18.70;96.20
52555;DHT22;38455;52.710;6.502;2024-03-02T10:44:05;19.20;97.10
52555;DHT22;38455;52.710;6.502;2024-03-02T10:46:32;19.30;96.00
52555;DHT22;38455;52.710;6.502;2024-03-02T10:49:01;19.50;95.20
52555;DHT22;38455;52.710;6.502;2024-03-02T10:51:29;19.60;95.20
52555;DHT22;38455;52.710;6.502;2024-03-02T10:54:00;19.20;94.10
52555;DHT22;38455;52.710;6.502;2024-03-02T10:56:46;19.10;94.30
52555;DHT22;38455;52.710;6.502;2024-03-02T11:02:00;19.10;94.30
52555;DHT22;38455;52.710;6.502;2024-03-02T11:04:30;19.00;94.30
52555;DHT22;38455;52.710;6.502;2024-03-02T11:07:06;18.40;93.80
52555;DHT22;38455;52.710;6.502;2024-03-02T11:09:38;17.90;94.50
52555;DHT22;38455;52.710;6.502;2024-03-02T11:12:12;18.00;94.40
52555;DHT22;38455;52.710;6.502;2024-03-02T11:14:42;18.40;95.20
52555;DHT22;38455;52.710;6.502;2024-03-02T11:17:12;18.60;94.30
52555;DHT22;38455;52.710;6.502;2024-03-02T11:19:41;19.00;94.00
52555;DHT22;38455;52.710;6.502;2024-03-02T11:22:08;19.40;93.80
52555;DHT22;38455;52.710;6.502;2024-03-02T11:24:34;19.50;92.60
52555;DHT22;38455;52.710;6.502;2024-03-02T11:27:01;19.70;92.80
52555;DHT22;38455;52.710;6.502;2024-03-02T11:32:06;19.90;91.60
52555;DHT22;38455;52.710;6.502;2024-03-02T11:34:41;19.60;91.60
52555;DHT22;38455;52.710;6.502;2024-03-02T11:37:11;19.60;91.10
52555;DHT22;38455;52.710;6.502;2024-03-02T11:39:38;19.60;91.60
52555;DHT22;38455;52.710;6.502;2024-03-02T11:42:06;19.70;91.60
52555;DHT22;38455;52.710;6.502;2024-03-02T11:44:35;19.40;91.10
52555;DHT22;38455;52.710;6.502;2024-03-02T11:47:06;19.90;91.20
52555;DHT22;38455;52.710;6.502;2024-03-02T11:52:13;20.10;90.70
52555;DHT22;38455;52.710;6.502;2024-03-02T11:54:40;20.10;91.00
52555;DHT22;38455;52.710;6.502;2024-03-02T11:57:12;20.00;90.60
52555;DHT22;38455;52.710;6.502;2024-03-02T11:59:38;20.10;91.30
52555;DHT22;38455;52.710;6.502;2024-03-02T12:02:03;20.30;91.20
52555;DHT22;38455;52.710;6.502;2024-03-02T12:04:30;20.20;89.90
52555;DHT22;38455;52.710;6.502;2024-03-02T12:07:00;20.30;89.40
52555;DHT22;38455;52.710;6.502;2024-03-02T12:09:27;20.80;87.60
52555;DHT22;38455;52.710;6.502;2024-03-02T12:12:07;21.30;88.40
52555;DHT22;38455;52.710;6.502;2024-03-02T12:14:34;20.90;85.20
52555;DHT22;38455;52.710;6.502;2024-03-02T12:17:00;20.70;86.40
52555;DHT22;38455;52.710;6.502;2024-03-02T12:19:27;20.50;86.20
52555;DHT22;38455;52.710;6.502;2024-03-02T12:21:53;20.20;86.30
52555;DHT22;38455;52.710;6.502;2024-03-02T12:24:21;20.00;86.50
52555;DHT22;38455;52.710;6.502;2024-03-02T12:26:48;20.10;87.00
52555;DHT22;38455;52.710;6.502;2024-03-02T12:29:14;20.30;87.20
52555;DHT22;38455;52.710;6.502;2024-03-02T12:31:42;20.50;86.50
52555;DHT22;38455;52.710;6.502;2024-03-02T12:34:09;20.50;85.70
52555;DHT22;38455;52.710;6.502;2024-03-02T12:36:38;20.70;86.00
52555;DHT22;38455;52.710;6.502;2024-03-02T12:39:04;20.90;85.80
52555;DHT22;38455;52.710;6.502;2024-03-02T12:41:31;21.00;86.40
52555;DHT22;38455;52.710;6.502;2024-03-02T12:43:56;21.20;85.20
52555;DHT22;38455;52.710;6.502;2024-03-02T12:46:22;21.30;84.80
52555;DHT22;38455;52.710;6.502;2024-03-02T12:48:47;20.30;84.00
52555;DHT22;38455;52.710;6.502;2024-03-02T12:51:13;19.40;82.30
52555;DHT22;38455;52.710;6.502;2024-03-02T12:53:40;19.10;84.10
52555;DHT22;38455;52.710;6.502;2024-03-02T12:56:06;18.90;85.80
52555;DHT22;38455;52.710;6.502;2024-03-02T12:58:41;17.80;85.70
52555;DHT22;38455;52.710;6.502;2024-03-02T13:01:10;17.70;86.60
52555;DHT22;38455;52.710;6.502;2024-03-02T13:03:39;16.80;88.30
52555;DHT22;38455;52.710;6.502;2024-03-02T13:06:06;16.80;89.80
52555;DHT22;38455;52.710;6.502;2024-03-02T13:08:33;16.50;89.70
52555;DHT22;38455;52.710;6.502;2024-03-02T13:10:59;16.20;90.60
52555;DHT22;38455;52.710;6.502;2024-03-02T13:13:25;16.20;91.10
52555;DHT22;38455;52.710;6.502;2024-03-02T13:15:55;16.10;90.90
52555;DHT22;38455;52.710;6.502;2024-03-02T13:18:21;16.00;91.00
52555;DHT22;38455;52.710;6.502;2024-03-02T13:20:47;15.90;91.70
52555;DHT22;38455;52.710;6.502;2024-03-02T13:23:13;15.70;91.40
52555;DHT22;38455;52.710;6.502;2024-03-02T13:25:39;15.60;91.30
52555;DHT22;38455;52.710;6.502;2024-03-02T13:28:06;15.50;91.70
52555;DHT22;38455;52.710;6.502;2024-03-02T13:30:32;15.00;91.90
52555;DHT22;38455;52.710;6.502;2024-03-02T13:32:58;15.00;92.10
52555;DHT22;38455;52.710;6.502;2024-03-02T13:35:24;14.90;92.40
52555;DHT22;38455;52.710;6.502;2024-03-02T13:37:49;14.70;92.50
52555;DHT22;38455;52.710;6.502;2024-03-02T13:40:16;14.60;92.90
52555;DHT22;38455;52.710;6.502;2024-03-02T13:42:46;14.70;92.80
52555;DHT22;38455;52.710;6.502;2024-03-02T13:45:12;14.50;93.00
52555;DHT22;38455;52.710;6.502;2024-03-02T13:47:38;14.50;93.00
52555;DHT22;38455;52.710;6.502;2024-03-02T13:50:04;14.40;93.10
52555;DHT22;38455;52.710;6.502;2024-03-02T13:52:31;14.50;93.10
52555;DHT22;38455;52.710;6.502;2024-03-02T13:54:56;14.40;93.20
52555;DHT22;38455;52.710;6.502;2024-03-02T13:57:22;14.40;93.40
52555;DHT22;38455;52.710;6.502;2024-03-02T13:59:49;14.40;93.40
52555;DHT22;38455;52.710;6.502;2024-03-02T14:02:15;14.40;93.40
52555;DHT22;38455;52.710;6.502;2024-03-02T14:04:41;14.50;93.40
52555;DHT22;38455;52.710;6.502;2024-03-02T14:07:07;14.60;93.70
52555;DHT22;38455;52.710;6.502;2024-03-02T14:09:33;14.80;93.50
52555;DHT22;38455;52.710;6.502;2024-03-02T14:11:58;14.70;93.40
52555;DHT22;38455;52.710;6.502;2024-03-02T14:14:26;14.70;93.50
52555;DHT22;38455;52.710;6.502;2024-03-02T14:16:55;14.80;93.50
52555;DHT22;38455;52.710;6.502;2024-03-02T14:19:29;14.70;93.50
52555;DHT22;38455;52.710;6.502;2024-03-02T14:21:56;14.80;93.30
52555;DHT22;38455;52.710;6.502;2024-03-02T14:24:22;14.90;93.00
52555;DHT22;38455;52.710;6.502;2024-03-02T14:26:54;15.00;93.10
52555;DHT22;38455;52.710;6.502;2024-03-02T14:29:20;15.10;92.90
52555;DHT22;38455;52.710;6.502;2024-03-02T14:31:45;15.20;93.10
52555;DHT22;38455;52.710;6.502;2024-03-02T14:34:14;15.20;93.10
52555;DHT22;38455;52.710;6.502;2024-03-02T14:36:40;15.00;93.10
52555;DHT22;38455;52.710;6.502;2024-03-02T14:39:06;14.80;92.80
52555;DHT22;38455;52.710;6.502;2024-03-02T14:41:38;14.70;92.70
52555;DHT22;38455;52.710;6.502;2024-03-02T14:44:04;14.70;92.80
52555;DHT22;38455;52.710;6.502;2024-03-02T14:46:30;14.70;92.70
52555;DHT22;38455;52.710;6.502;2024-03-02T14:48:56;14.50;93.00
52555;DHT22;38455;52.710;6.502;2024-03-02T14:51:22;14.40;92.90
52555;DHT22;38455;52.710;6.502;2024-03-02T14:53:48;14.50;93.20
52555;DHT22;38455;52.710;6.502;2024-03-02T14:56:13;14.30;93.30
52555;DHT22;38455;52.710;6.502;2024-03-02T14:58:39;14.30;93.70
52555;DHT22;38455;52.710;6.502;2024-03-02T15:01:05;14.30;93.70
52555;DHT22;38455;52.710;6.502;2024-03-02T15:03:32;14.10;93.90
52555;DHT22;38455;52.710;6.502;2024-03-02T15:05:58;14.10;93.80
52555;DHT22;38455;52.710;6.502;2024-03-02T15:08:23;14.00;94.20
52555;DHT22;38455;52.710;6.502;2024-03-02T15:10:49;14.10;94.20
52555;DHT22;38455;52.710;6.502;2024-03-02T15:13:15;14.00;94.20
52555;DHT22;38455;52.710;6.502;2024-03-02T15:15:41;13.90;94.30
52555;DHT22;38455;52.710;6.502;2024-03-02T15:18:07;13.80;94.50
52555;DHT22;38455;52.710;6.502;2024-03-02T15:20:33;13.70;94.60
52555;DHT22;38455;52.710;6.502;2024-03-02T15:22:59;13.60;94.70
52555;DHT22;38455;52.710;6.502;2024-03-02T15:25:25;13.50;94.80
52555;DHT22;38455;52.710;6.502;2024-03-02T15:27:50;13.50;95.10
52555;DHT22;38455;52.710;6.502;2024-03-02T15:30:16;13.40;95.20
52555;DHT22;38455;52.710;6.502;2024-03-02T15:32:42;13.50;95.40
52555;DHT22;38455;52.710;6.502;2024-03-02T15:35:08;13.40;95.60
52555;DHT22;38455;52.710;6.502;2024-03-02T15:37:34;13.40;95.80
52555;DHT22;38455;52.710;6.502;2024-03-02T15:39:59;13.40;96.00
52555;DHT22;38455;52.710;6.502;2024-03-02T15:42:35;13.40;96.10
52555;DHT22;38455;52.710;6.502;2024-03-02T15:45:01;13.30;96.40
52555;DHT22;38455;52.710;6.502;2024-03-02T15:47:26;13.30;96.50